createdAt,value
2023-04-30T00:00:59.741Z,12.38
2023-04-30T00:03:07.197Z,11.23
2023-04-30T00:05:14.870Z,11.55
2023-04-30T00:07:24.150Z,11.93
2023-04-30T00:09:31.444Z,11.40
2023-04-30T00:11:40.510Z,12.13
2023-04-30T00:13:48.152Z,11.70
2023-04-30T00:15:55.566Z,12.07
2023-04-30T00:18:08.551Z,11.63
2023-04-30T00:20:16.719Z,11.38
2023-04-30T00:22:24.256Z,11.63
2023-04-30T00:24:31.540Z,11.48
2023-04-30T00:26:41.126Z,12.20
2023-04-30T00:28:48.315Z,11.65
2023-04-30T00:30:55.904Z,11.57
2023-04-30T00:33:03.385Z,11.90
2023-04-30T00:35:12.475Z,13.18
2023-04-30T00:37:21.077Z,12.90
2023-04-30T00:39:28.854Z,12.48
2023-04-30T00:41:38.255Z,11.98
2023-04-30T00:43:48.061Z,12.77
2023-04-30T00:45:55.328Z,12.52
2023-04-30T00:48:03.801Z,12.55
2023-04-30T00:50:14.356Z,12.52
2023-04-30T00:52:21.949Z,14.25
2023-04-30T00:54:29.897Z,13.88
2023-04-30T00:56:37.544Z,13.82
2023-04-30T00:58:47.177Z,15.18
2023-04-30T01:00:55.622Z,14.45
2023-04-30T01:03:03.626Z,14.30
2023-04-30T01:05:11.898Z,13.02
2023-04-30T01:07:19.188Z,13.23
2023-04-30T01:09:26.922Z,12.23
2023-04-30T01:11:43.736Z,11.88
2023-04-30T01:13:57.571Z,11.77
2023-04-30T01:16:21.452Z,11.52
2023-04-30T01:18:34.735Z,12.93
2023-04-30T01:20:47.228Z,12.65
2023-04-30T01:22:59.982Z,12.32
2023-04-30T01:25:21.031Z,13.05
2023-04-30T01:27:45.687Z,12.70
2023-04-30T01:29:57.108Z,12.85
2023-04-30T01:32:06.445Z,12.38
2023-04-30T01:34:13.738Z,12.35
2023-04-30T01:36:40.420Z,12.18
2023-04-30T01:39:06.492Z,12.50
2023-04-30T01:41:21.410Z,12.55
2023-04-30T01:43:39.189Z,14.00
2023-04-30T01:46:01.107Z,12.85
2023-04-30T01:48:20.633Z,12.93
2023-04-30T01:50:41.001Z,12.68
2023-04-30T01:52:59.884Z,12.50
2023-04-30T01:55:15.669Z,12.80
2023-04-30T01:57:30.937Z,12.93
2023-04-30T01:59:41.807Z,12.27
2023-04-30T02:01:51.794Z,12.05
2023-04-30T02:03:59.303Z,12.43
2023-04-30T02:06:07.065Z,12.55
2023-04-30T02:08:14.992Z,12.45
2023-04-30T02:10:24.326Z,12.02
2023-04-30T02:12:32.478Z,12.20
2023-04-30T02:14:40.214Z,13.02
2023-04-30T02:16:47.617Z,11.57
2023-04-30T02:18:58.570Z,13.55
2023-04-30T02:21:09.289Z,13.07
2023-04-30T02:23:19.385Z,12.77
2023-04-30T02:25:27.335Z,12.48
2023-04-30T02:27:37.996Z,12.43
2023-04-30T02:29:45.393Z,12.73
2023-04-30T02:31:52.811Z,13.38
2023-04-30T02:34:02.319Z,12.45
2023-04-30T02:36:10.156Z,13.88
2023-04-30T02:38:38.481Z,12.98
2023-04-30T02:40:47.077Z,13.80
2023-04-30T02:42:56.070Z,13.35
2023-04-30T02:45:03.290Z,13.55
2023-04-30T02:47:10.740Z,12.10
2023-04-30T02:49:20.029Z,13.88
2023-04-30T02:51:27.971Z,14.23
2023-04-30T02:53:35.128Z,13.02
2023-04-30T02:55:48.887Z,12.07
2023-04-30T02:57:56.224Z,12.75
2023-04-30T03:00:03.817Z,11.93
2023-04-30T03:02:11.220Z,13.40
2023-04-30T03:04:20.532Z,12.55
2023-04-30T03:06:28.155Z,11.75
2023-04-30T03:08:35.766Z,12.65
2023-04-30T03:10:43.209Z,12.27
2023-04-30T03:12:50.893Z,13.10
2023-04-30T03:14:58.422Z,12.73
2023-04-30T03:17:06.130Z,13.35
2023-04-30T03:19:13.311Z,12.38
2023-04-30T03:21:22.489Z,12.55
2023-04-30T03:23:34.486Z,12.77
2023-04-30T03:25:42.282Z,13.15
2023-04-30T03:27:49.528Z,12.45
2023-04-30T03:29:57.273Z,13.27
2023-04-30T03:32:10.382Z,12.95
2023-04-30T03:34:21.234Z,13.50
2023-04-30T03:36:31.145Z,12.98
2023-04-30T03:38:38.441Z,13.63
2023-04-30T03:40:45.608Z,12.00
2023-04-30T03:42:53.359Z,12.15
2023-04-30T03:45:00.697Z,15.43
2023-04-30T03:47:08.350Z,12.35
2023-04-30T03:49:15.516Z,11.98
2023-04-30T03:51:30.330Z,11.50
2023-04-30T03:53:39.562Z,11.13
2023-04-30T03:55:47.455Z,11.65
2023-04-30T03:57:55.511Z,13.10
2023-04-30T04:00:03.100Z,12.52
2023-04-30T04:02:26.991Z,12.32
2023-04-30T04:04:36.273Z,11.18
2023-04-30T04:06:43.788Z,11.80
2023-04-30T04:08:53.133Z,10.75
2023-04-30T04:11:10.292Z,11.73
2023-04-30T04:13:22.083Z,11.45
2023-04-30T04:15:29.213Z,10.93
2023-04-30T04:17:36.666Z,10.73
2023-04-30T04:19:52.293Z,10.63
2023-04-30T04:22:00.611Z,11.10
2023-04-30T04:24:11.053Z,11.40
2023-04-30T04:26:20.687Z,10.80
2023-04-30T04:28:28.389Z,10.32
2023-04-30T04:30:36.385Z,11.10
2023-04-30T04:32:47.998Z,11.93
2023-04-30T04:34:58.063Z,11.30
2023-04-30T04:37:05.242Z,11.43
2023-04-30T04:39:14.580Z,10.55
2023-04-30T04:41:22.014Z,10.80
2023-04-30T04:43:29.557Z,11.05
2023-04-30T04:45:36.939Z,10.52
2023-04-30T04:47:44.420Z,11.27
2023-04-30T04:49:51.754Z,10.23
2023-04-30T04:51:59.454Z,10.77
2023-04-30T04:54:06.855Z,9.77
2023-04-30T04:56:16.025Z,9.57
2023-04-30T04:58:24.241Z,10.13
2023-04-30T05:00:32.487Z,10.48
2023-04-30T05:02:39.843Z,10.65
2023-04-30T05:04:48.071Z,9.95
2023-04-30T05:06:55.664Z,10.20
2023-04-30T05:09:03.717Z,11.02
2023-04-30T05:11:10.848Z,9.95
2023-04-30T05:13:20.236Z,9.50
2023-04-30T05:15:27.614Z,10.00
2023-04-30T05:17:35.342Z,9.57
2023-04-30T05:19:42.545Z,8.93
2023-04-30T05:21:49.990Z,9.88
2023-04-30T05:23:57.432Z,8.40
2023-04-30T05:26:04.907Z,8.73
2023-04-30T05:28:12.464Z,8.80
2023-04-30T05:30:21.573Z,8.50
2023-04-30T05:32:30.615Z,8.52
2023-04-30T05:34:37.786Z,8.55
2023-04-30T05:36:45.221Z,8.23
2023-04-30T05:38:52.712Z,7.55
2023-04-30T05:41:00.268Z,7.70
2023-04-30T05:43:07.532Z,7.93
2023-04-30T05:45:18.244Z,7.97
2023-04-30T05:47:27.337Z,8.02
2023-04-30T05:49:36.277Z,7.97
2023-04-30T05:51:43.629Z,8.18
2023-04-30T05:53:51.018Z,7.28
2023-04-30T05:55:58.277Z,7.70
2023-04-30T05:58:06.308Z,8.07
2023-04-30T06:00:14.303Z,7.93
2023-04-30T06:02:21.966Z,7.35
2023-04-30T06:04:31.892Z,7.60
2023-04-30T06:06:39.335Z,8.20
2023-04-30T06:08:46.615Z,7.03
2023-04-30T06:10:55.383Z,7.50
2023-04-30T06:13:02.823Z,7.07
2023-04-30T06:15:11.344Z,7.20
2023-04-30T06:17:18.485Z,6.97
2023-04-30T06:19:25.903Z,7.20
2023-04-30T06:21:35.032Z,7.32
2023-04-30T06:23:42.365Z,7.43
2023-04-30T06:25:49.752Z,7.20
2023-04-30T06:27:57.171Z,6.97
2023-04-30T06:30:04.628Z,6.95
2023-04-30T06:32:11.817Z,6.88
2023-04-30T06:34:19.023Z,6.88
2023-04-30T06:36:26.480Z,7.25
2023-04-30T06:38:35.505Z,7.47
2023-04-30T06:40:43.044Z,7.13
2023-04-30T06:42:50.279Z,7.30
2023-04-30T06:44:58.174Z,7.47
2023-04-30T06:47:05.366Z,7.57
2023-04-30T06:49:12.754Z,7.15
2023-04-30T06:51:19.872Z,7.80
2023-04-30T06:53:27.568Z,7.03
2023-04-30T06:55:36.386Z,7.57
2023-04-30T06:57:43.983Z,7.53
2023-04-30T06:59:51.271Z,7.82
2023-04-30T07:01:58.743Z,7.22
2023-04-30T07:04:06.134Z,7.65
2023-04-30T07:06:13.809Z,7.30
2023-04-30T07:08:21.059Z,7.40
2023-04-30T07:10:28.849Z,7.15
2023-04-30T07:12:37.733Z,6.90
2023-04-30T07:14:45.582Z,7.22
2023-04-30T07:16:54.803Z,6.90
2023-04-30T07:19:02.862Z,6.88
2023-04-30T07:21:10.348Z,7.65
2023-04-30T07:23:17.884Z,7.65
2023-04-30T07:25:25.372Z,6.80
2023-04-30T07:27:32.966Z,7.25
2023-04-30T07:29:41.936Z,7.07
2023-04-30T07:31:49.385Z,6.80
2023-04-30T07:33:57.016Z,6.93
2023-04-30T07:36:04.503Z,7.20
2023-04-30T07:38:11.842Z,7.43
2023-04-30T07:40:34.497Z,7.13
2023-04-30T07:42:43.971Z,6.95
2023-04-30T07:44:53.921Z,7.63
2023-04-30T07:47:01.201Z,6.93
2023-04-30T07:49:08.816Z,7.05
2023-04-30T07:51:16.081Z,7.07
2023-04-30T07:53:23.666Z,7.90
2023-04-30T07:55:31.167Z,7.07
2023-04-30T07:57:38.902Z,7.10
2023-04-30T07:59:45.980Z,7.07
2023-04-30T08:01:55.105Z,11.93
2023-04-30T08:04:02.606Z,11.60
2023-04-30T08:06:10.363Z,10.85
2023-04-30T08:08:17.528Z,12.00
2023-04-30T08:10:25.188Z,7.05
2023-04-30T08:12:32.352Z,6.78
2023-04-30T08:14:39.993Z,6.60
2023-04-30T08:16:47.240Z,6.90
2023-04-30T08:18:56.557Z,6.20
2023-04-30T08:21:04.916Z,6.97
2023-04-30T08:23:12.595Z,6.55
2023-04-30T08:25:19.902Z,6.35
2023-04-30T08:27:27.640Z,6.47
2023-04-30T08:29:34.771Z,6.20
2023-04-30T08:31:42.309Z,7.65
2023-04-30T08:33:49.542Z,7.30
2023-04-30T08:35:58.823Z,6.97
2023-04-30T08:38:06.058Z,6.72
2023-04-30T08:40:15.144Z,7.22
2023-04-30T08:42:25.291Z,6.93
2023-04-30T08:44:34.108Z,7.38
2023-04-30T08:46:45.695Z,7.65
2023-04-30T08:48:53.636Z,6.75
2023-04-30T08:51:04.313Z,6.80
2023-04-30T08:53:13.734Z,7.38
2023-04-30T08:55:21.365Z,6.55
2023-04-30T08:57:29.223Z,7.63
2023-04-30T08:59:36.459Z,7.40
2023-04-30T09:01:44.745Z,7.25
2023-04-30T09:03:52.254Z,7.25
2023-04-30T09:06:01.842Z,6.97
2023-04-30T09:08:10.362Z,6.82
2023-04-30T09:10:21.283Z,6.32
2023-04-30T09:12:28.504Z,6.13
2023-04-30T09:14:41.166Z,6.60
2023-04-30T09:16:55.824Z,6.07
2023-04-30T09:19:03.669Z,6.00
2023-04-30T09:21:12.694Z,7.38
2023-04-30T09:23:20.091Z,6.63
2023-04-30T09:25:43.291Z,6.78
2023-04-30T09:27:50.622Z,6.15
2023-04-30T09:29:57.734Z,6.38
2023-04-30T09:32:12.819Z,6.00
2023-04-30T09:34:20.154Z,5.68
2023-04-30T09:36:29.334Z,5.90
2023-04-30T09:38:37.181Z,5.85
2023-04-30T09:40:46.257Z,6.10
2023-04-30T09:43:03.432Z,8.38
2023-04-30T09:45:14.140Z,6.40
2023-04-30T09:47:22.526Z,6.82
2023-04-30T09:49:30.140Z,6.15
2023-04-30T09:51:38.755Z,5.97
2023-04-30T09:53:47.422Z,6.53
2023-04-30T09:55:57.365Z,6.55
2023-04-30T09:58:08.296Z,20.98
2023-04-30T10:00:16.502Z,18.65
2023-04-30T10:02:24.336Z,9.27
2023-04-30T10:04:34.751Z,6.45
2023-04-30T10:06:45.430Z,9.88
2023-04-30T10:08:54.743Z,6.65
2023-04-30T10:11:07.103Z,7.47
2023-04-30T10:13:18.238Z,7.47
2023-04-30T10:15:28.940Z,6.72
2023-04-30T10:17:42.003Z,7.97
2023-04-30T10:19:53.209Z,6.90
2023-04-30T10:22:02.675Z,7.45
2023-04-30T10:24:11.436Z,6.28
2023-04-30T10:26:19.185Z,6.13
2023-04-30T10:28:27.953Z,6.78
2023-04-30T10:30:35.796Z,6.68
2023-04-30T10:32:47.536Z,7.55
2023-04-30T10:35:03.315Z,6.50
2023-04-30T10:37:19.663Z,6.43
2023-04-30T10:39:28.634Z,6.78
2023-04-30T10:41:36.232Z,8.23
2023-04-30T10:43:43.562Z,7.80
2023-04-30T10:45:51.352Z,8.35
2023-04-30T10:47:59.702Z,9.23
2023-04-30T10:50:07.820Z,8.88
2023-04-30T10:52:16.387Z,7.95
2023-04-30T10:54:29.914Z,10.30
2023-04-30T10:56:37.615Z,12.55
2023-04-30T10:58:45.215Z,18.05
2023-04-30T11:01:03.545Z,23.35
2023-04-30T11:03:10.745Z,23.27
2023-04-30T11:05:19.445Z,22.15
2023-04-30T11:07:31.953Z,22.38
2023-04-30T11:09:47.375Z,20.67
2023-04-30T11:12:06.381Z,18.02
2023-04-30T11:14:16.023Z,14.82
2023-04-30T11:16:23.194Z,13.57
2023-04-30T11:18:32.178Z,12.77
2023-04-30T11:20:44.387Z,11.40
2023-04-30T11:23:10.873Z,10.23
2023-04-30T11:25:23.519Z,10.02
2023-04-30T11:27:31.269Z,10.75
2023-04-30T11:29:39.525Z,10.65
2023-04-30T11:31:47.365Z,11.52
2023-04-30T11:33:55.485Z,11.43
2023-04-30T11:36:04.449Z,12.73
2023-04-30T11:38:15.572Z,11.70
2023-04-30T11:40:36.169Z,12.37
2023-04-30T11:42:47.598Z,18.08
2023-04-30T11:44:54.476Z,27.10
2023-04-30T11:47:01.932Z,29.48
2023-04-30T11:49:09.100Z,39.42
2023-04-30T11:51:23.443Z,32.78
2023-04-30T11:53:35.283Z,25.67
2023-04-30T11:57:53.334Z,17.27
2023-04-30T12:00:11.008Z,17.73
2023-04-30T12:02:20.421Z,14.15
2023-04-30T12:04:27.670Z,12.77
2023-04-30T12:06:40.418Z,12.73
2023-04-30T12:08:49.368Z,14.70
2023-04-30T12:10:56.714Z,15.48
2023-04-30T12:15:27.796Z,16.85
2023-04-30T12:17:39.168Z,14.68
2023-04-30T12:21:53.100Z,15.02
2023-04-30T12:24:03.446Z,35.00
2023-04-30T12:26:11.237Z,14.05
2023-04-30T12:28:18.580Z,19.48
2023-04-30T12:30:27.872Z,16.23
2023-04-30T12:32:35.368Z,15.15
2023-04-30T12:34:42.777Z,15.73
2023-04-30T12:36:50.112Z,15.57
2023-04-30T12:39:10.359Z,14.30
2023-04-30T12:41:18.614Z,15.07
2023-04-30T12:43:25.853Z,15.85
2023-04-30T12:45:49.900Z,12.43
2023-04-30T12:47:58.122Z,12.80
2023-04-30T12:50:05.980Z,12.55
2023-04-30T12:52:14.250Z,12.27
2023-04-30T12:54:31.298Z,11.85
2023-04-30T12:56:38.116Z,11.90
2023-04-30T12:58:48.371Z,11.57
2023-04-30T13:00:55.910Z,12.50
2023-04-30T13:03:03.197Z,12.55
2023-04-30T13:05:11.754Z,11.50
2023-04-30T13:07:20.218Z,12.40
2023-04-30T13:09:28.888Z,12.52
2023-04-30T13:11:36.026Z,11.90
2023-04-30T13:13:43.298Z,12.25
2023-04-30T13:15:50.697Z,12.10
2023-04-30T13:17:58.250Z,11.85
2023-04-30T13:20:05.882Z,11.70
2023-04-30T13:22:13.010Z,12.07
2023-04-30T13:24:20.383Z,12.48
2023-04-30T13:26:29.458Z,12.30
2023-04-30T13:28:36.595Z,14.70
2023-04-30T13:30:43.874Z,12.13
2023-04-30T13:32:50.977Z,16.33
2023-04-30T13:34:59.466Z,24.15
2023-04-30T13:37:06.495Z,32.72
2023-04-30T13:39:14.043Z,37.50
2023-04-30T13:41:21.784Z,33.65
2023-04-30T13:43:30.754Z,31.73
2023-04-30T13:45:37.853Z,25.73
2023-04-30T13:47:45.333Z,18.75
2023-04-30T13:49:52.324Z,17.40
2023-04-30T13:51:59.634Z,17.85
2023-04-30T13:54:06.889Z,18.13
2023-04-30T13:56:14.052Z,19.95
2023-04-30T13:58:21.489Z,19.88
2023-04-30T14:00:30.293Z,21.70
2023-04-30T14:02:37.800Z,21.50
2023-04-30T14:04:51.733Z,17.00
2023-04-30T14:07:09.571Z,19.88
2023-04-30T14:09:16.851Z,18.17
2023-04-30T14:11:23.726Z,16.15
2023-04-30T14:13:30.856Z,15.25
2023-04-30T14:15:39.731Z,13.80
2023-04-30T14:17:46.900Z,13.63
2023-04-30T14:19:54.284Z,14.00
2023-04-30T14:22:01.590Z,13.52
2023-04-30T14:24:09.117Z,12.30
2023-04-30T14:26:16.509Z,12.23
2023-04-30T14:28:23.589Z,11.55
2023-04-30T14:30:30.920Z,12.40
2023-04-30T14:32:39.751Z,12.05
2023-04-30T14:34:47.123Z,22.70
2023-04-30T14:36:54.359Z,12.52
2023-04-30T14:39:01.495Z,11.98
2023-04-30T14:41:08.359Z,12.25
2023-04-30T14:43:15.951Z,12.60
2023-04-30T14:45:23.048Z,12.40
2023-04-30T14:47:30.990Z,12.30
2023-04-30T14:49:40.731Z,12.48
2023-04-30T14:51:47.599Z,12.95
2023-04-30T14:53:58.159Z,13.10
2023-04-30T14:56:05.504Z,13.52
2023-04-30T14:58:13.354Z,13.18
2023-04-30T15:00:21.191Z,14.07
2023-04-30T15:02:28.619Z,13.77
2023-04-30T15:04:35.756Z,14.00
2023-04-30T15:06:45.007Z,13.50
2023-04-30T15:08:51.860Z,14.80
2023-04-30T15:10:59.615Z,14.43
2023-04-30T15:13:07.199Z,14.93
2023-04-30T15:15:16.243Z,15.75
2023-04-30T15:17:25.782Z,15.32
2023-04-30T15:19:33.916Z,14.80
2023-04-30T15:21:40.738Z,14.95
2023-04-30T15:23:49.612Z,15.35
2023-04-30T15:25:57.918Z,14.45
2023-04-30T15:28:05.305Z,15.00
2023-04-30T15:30:13.507Z,12.88
2023-04-30T15:32:20.329Z,12.73
2023-04-30T15:34:27.516Z,12.75
2023-04-30T15:36:34.814Z,12.65
2023-04-30T15:38:42.132Z,12.93
2023-04-30T15:40:50.803Z,14.02
2023-04-30T15:42:57.936Z,15.68
2023-04-30T15:45:04.955Z,15.77
2023-04-30T15:47:12.562Z,16.05
2023-04-30T15:49:19.623Z,15.48
2023-04-30T15:51:27.119Z,15.02
2023-04-30T15:53:33.946Z,14.57
2023-04-30T15:55:41.481Z,13.43
2023-04-30T15:57:50.253Z,15.10
2023-04-30T15:59:58.520Z,14.60
2023-04-30T16:02:05.837Z,13.77
2023-04-30T16:04:13.169Z,13.52
2023-04-30T16:06:20.600Z,14.10
2023-04-30T16:08:27.749Z,12.88
2023-04-30T16:10:34.569Z,12.93
2023-04-30T16:12:42.262Z,11.75
2023-04-30T16:14:51.082Z,11.75
2023-04-30T16:16:58.597Z,12.25
2023-04-30T16:19:05.853Z,12.35
2023-04-30T16:21:14.112Z,12.10
2023-04-30T16:23:21.140Z,11.98
2023-04-30T16:25:28.789Z,12.10
2023-04-30T16:27:37.312Z,12.88
2023-04-30T16:29:44.832Z,12.05
2023-04-30T16:31:53.758Z,12.75
2023-04-30T16:34:01.243Z,13.50
2023-04-30T16:36:08.373Z,12.02
2023-04-30T16:38:15.973Z,11.70
2023-04-30T16:40:22.990Z,12.20
2023-04-30T16:42:31.919Z,11.88
2023-04-30T16:44:39.007Z,12.68
2023-04-30T16:46:46.175Z,13.45
2023-04-30T16:48:54.995Z,12.88
2023-04-30T16:51:02.175Z,12.27
2023-04-30T16:53:10.884Z,11.75
2023-04-30T16:55:18.694Z,11.77
2023-04-30T16:57:26.442Z,12.48
2023-04-30T16:59:33.669Z,12.35
2023-04-30T17:01:41.168Z,12.57
2023-04-30T17:03:48.402Z,12.27
2023-04-30T17:05:58.287Z,12.63
2023-04-30T17:08:05.107Z,11.68
2023-04-30T17:10:13.694Z,12.13
2023-04-30T17:12:20.544Z,10.73
2023-04-30T17:14:27.938Z,12.00
2023-04-30T17:16:34.908Z,11.52
2023-04-30T17:18:42.305Z,11.93
2023-04-30T17:20:50.713Z,12.57
2023-04-30T17:25:19.764Z,11.68
2023-04-30T17:27:28.174Z,11.82
2023-04-30T17:29:35.305Z,11.13
2023-04-30T17:31:42.560Z,12.05
2023-04-30T17:33:49.921Z,11.85
2023-04-30T17:35:57.206Z,11.70
2023-04-30T17:38:05.720Z,11.43
2023-04-30T17:40:13.778Z,12.45
2023-04-30T17:42:20.864Z,12.38
2023-04-30T17:44:28.257Z,12.07
2023-04-30T17:46:35.434Z,12.05
2023-04-30T17:48:42.976Z,12.05
2023-04-30T17:50:50.474Z,12.80
2023-04-30T17:52:58.911Z,11.65
2023-04-30T17:55:08.750Z,13.35
2023-04-30T17:57:16.144Z,12.20
2023-04-30T17:59:23.326Z,12.20
2023-04-30T18:01:30.813Z,12.50
2023-04-30T18:03:38.851Z,13.20
2023-04-30T18:05:46.254Z,14.55
2023-04-30T18:07:53.432Z,12.57
2023-04-30T18:10:00.766Z,13.07
2023-04-30T18:12:09.743Z,13.73
2023-04-30T18:14:16.834Z,13.40
2023-04-30T18:16:23.751Z,13.93
2023-04-30T18:18:30.992Z,13.30
2023-04-30T18:20:38.015Z,14.32
2023-04-30T18:22:45.622Z,12.65
2023-04-30T18:24:54.497Z,12.45
2023-04-30T18:27:02.017Z,12.85
2023-04-30T18:29:10.787Z,12.45
2023-04-30T18:31:18.315Z,13.00
2023-04-30T18:33:25.463Z,13.48
2023-04-30T18:35:33.052Z,13.25
2023-04-30T18:37:40.116Z,13.75
2023-04-30T18:39:47.453Z,13.85
2023-04-30T18:41:54.744Z,14.23
2023-04-30T18:44:02.277Z,14.02
2023-04-30T18:46:10.972Z,13.85
2023-04-30T18:48:20.030Z,14.40
2023-04-30T18:50:28.384Z,12.93
2023-04-30T18:52:35.920Z,12.25
2023-04-30T18:54:45.366Z,13.77
2023-04-30T18:56:52.738Z,13.65
2023-04-30T18:58:59.625Z,14.10
2023-04-30T19:01:09.489Z,13.77
2023-04-30T19:03:18.358Z,15.80
2023-04-30T19:05:25.926Z,17.35
2023-04-30T19:07:32.950Z,15.50
2023-04-30T19:09:40.346Z,11.57
2023-04-30T19:11:47.478Z,13.20
2023-04-30T19:13:54.812Z,12.45
2023-04-30T19:16:03.365Z,13.57
2023-04-30T19:18:13.734Z,13.13
2023-04-30T19:20:22.648Z,15.55
2023-04-30T19:22:29.526Z,15.93
2023-04-30T19:24:37.050Z,14.55
2023-04-30T19:26:44.347Z,14.55
2023-04-30T19:28:51.580Z,14.93
2023-04-30T19:30:59.360Z,16.67
2023-04-30T19:33:06.878Z,16.10
2023-04-30T19:35:14.094Z,17.40
2023-04-30T19:37:23.073Z,14.98
2023-04-30T19:39:35.010Z,14.60
2023-04-30T19:41:42.468Z,18.58
2023-04-30T19:43:49.680Z,18.98
2023-04-30T19:45:57.469Z,19.52
2023-04-30T19:48:05.104Z,19.92
2023-04-30T19:50:12.886Z,20.42
2023-04-30T19:52:21.838Z,20.58
2023-04-30T19:54:29.286Z,21.02
2023-04-30T19:56:37.071Z,18.10
2023-04-30T19:58:44.942Z,19.60
2023-04-30T20:00:52.370Z,19.95
2023-04-30T20:03:02.275Z,20.02
2023-04-30T20:05:11.226Z,19.60
2023-04-30T20:07:19.741Z,18.00
2023-04-30T20:09:28.762Z,17.63
2023-04-30T20:11:35.535Z,18.60
2023-04-30T20:13:42.768Z,20.00
2023-04-30T20:15:50.177Z,20.55
2023-04-30T20:17:57.603Z,20.42
2023-04-30T20:20:04.928Z,19.23
2023-04-30T20:22:14.143Z,19.73
2023-04-30T20:24:22.622Z,20.95
2023-04-30T20:26:31.748Z,21.50
2023-04-30T20:28:39.489Z,20.80
2023-04-30T20:30:49.035Z,18.98
2023-04-30T20:32:56.465Z,20.38
2023-04-30T20:35:03.801Z,18.83
2023-04-30T20:37:10.939Z,19.55
2023-04-30T20:39:18.393Z,20.25
2023-04-30T20:41:25.497Z,20.42
2023-04-30T20:43:34.278Z,19.50
2023-04-30T20:45:41.860Z,20.02
2023-04-30T20:47:48.771Z,20.35
2023-04-30T20:49:56.049Z,20.83
2023-04-30T20:52:03.201Z,21.48
2023-04-30T20:54:11.355Z,21.08
2023-04-30T20:56:18.384Z,19.90
2023-04-30T20:58:25.470Z,19.23
2023-04-30T21:00:34.391Z,19.25
2023-04-30T21:02:41.613Z,19.13
2023-04-30T21:04:48.804Z,19.52
2023-04-30T21:06:56.248Z,19.00
2023-04-30T21:09:03.368Z,20.85
2023-04-30T21:11:10.502Z,20.83
2023-04-30T21:13:18.089Z,22.05
2023-04-30T21:15:25.528Z,21.77
2023-04-30T21:17:34.395Z,22.05
2023-04-30T21:19:41.530Z,22.25
2023-04-30T21:21:48.410Z,20.90
2023-04-30T21:23:56.215Z,20.30
2023-04-30T21:26:03.262Z,20.63
2023-04-30T21:28:10.618Z,20.73
2023-04-30T21:30:18.120Z,19.55
2023-04-30T21:32:25.055Z,19.88
2023-04-30T21:34:36.155Z,19.77
2023-04-30T21:36:43.251Z,19.52
2023-04-30T21:38:50.789Z,18.88
2023-04-30T21:40:58.011Z,19.13
2023-04-30T21:43:05.093Z,19.05
2023-04-30T21:45:12.793Z,18.08
2023-04-30T21:47:19.985Z,18.65
2023-04-30T21:49:27.136Z,18.25
2023-04-30T21:51:37.405Z,20.05
2023-04-30T21:53:44.556Z,19.85
2023-04-30T21:55:51.708Z,19.65
2023-04-30T21:57:58.992Z,18.63
2023-04-30T22:00:07.503Z,19.55
2023-04-30T22:02:23.752Z,20.52
2023-04-30T22:04:31.441Z,19.92
2023-04-30T22:06:40.561Z,20.60
2023-04-30T22:08:47.495Z,19.73
2023-04-30T22:10:59.893Z,22.25
2023-04-30T22:13:06.776Z,19.35
2023-04-30T22:15:15.081Z,20.38
2023-04-30T22:17:22.183Z,19.00
2023-04-30T22:19:29.605Z,20.88
2023-04-30T22:21:36.739Z,22.17
2023-04-30T22:23:45.900Z,20.63
2023-04-30T22:25:53.249Z,20.42
2023-04-30T22:28:00.569Z,21.95
2023-04-30T22:30:08.059Z,21.75
2023-04-30T22:32:15.706Z,22.80
2023-04-30T22:34:24.266Z,21.52
2023-04-30T22:36:31.601Z,21.50
2023-04-30T22:38:38.692Z,21.65
2023-04-30T22:40:47.894Z,23.25
2023-04-30T22:42:55.455Z,22.35
2023-04-30T22:45:03.258Z,24.38
2023-04-30T22:47:10.252Z,23.20
2023-04-30T22:49:29.842Z,21.42
2023-04-30T22:51:38.666Z,19.90
2023-04-30T22:53:46.077Z,22.10
2023-04-30T22:55:55.846Z,21.02
2023-04-30T22:58:03.079Z,19.60
2023-04-30T23:00:11.489Z,21.25
2023-04-30T23:02:18.839Z,20.70
2023-04-30T23:04:25.753Z,18.52
2023-04-30T23:06:33.161Z,18.88
2023-04-30T23:08:40.231Z,19.17
2023-04-30T23:10:48.324Z,20.38
2023-04-30T23:12:57.548Z,18.67
2023-04-30T23:15:05.038Z,20.70
2023-04-30T23:17:11.914Z,21.23
2023-04-30T23:19:19.042Z,21.77
2023-04-30T23:21:25.917Z,21.92
2023-04-30T23:23:33.306Z,22.90
2023-04-30T23:25:41.101Z,23.27
2023-04-30T23:27:48.438Z,22.25
2023-04-30T23:29:57.831Z,22.88
2023-04-30T23:32:05.428Z,25.25
2023-04-30T23:34:12.652Z,23.17
2023-04-30T23:36:19.940Z,24.50
2023-04-30T23:38:27.159Z,24.67
2023-04-30T23:40:35.093Z,22.98
2023-04-30T23:42:42.496Z,23.55
2023-04-30T23:44:49.578Z,22.75
2023-04-30T23:46:58.656Z,20.38
2023-04-30T23:49:06.036Z,17.45
2023-04-30T23:51:13.535Z,19.45
2023-04-30T23:53:20.915Z,18.73
2023-04-30T23:55:27.792Z,15.63
2023-04-30T23:57:34.914Z,15.05
2023-04-30T23:59:43.531Z,14.35
